Time;durP1;ratioP1;P1;durP2;ratioP2;P2;SDS_P1;SDS_P2;PMS_P1;PMS_P2;Temp;Humidity;BMP_temperature;BMP_pressure;BME280_temperature;BME280_humidity;BME280_pressure;Samples;Min_cycle;Max_cycle;Signal;HPM_P1;HPM_P2
2021/10/15 00:00:59;;;;;;;19.60;8.05;;;;;;;7.82;100.00;101888.00;5222528;28;20025;-73
2021/10/15 00:03:30;;;;;;;16.45;6.65;;;;;;;7.84;100.00;101880.75;5222430;28;20041;-76
2021/10/15 00:06:00;;;;;;;16.88;7.03;;;;;;;7.88;100.00;101881.31;5222375;28;20039;-74
2021/10/15 00:08:31;;;;;;;17.67;7.93;;;;;;;7.96;100.00;101879.75;5221322;28;20029;-75
2021/10/15 00:11:01;;;;;;;18.73;7.28;;;;;;;7.98;100.00;101872.47;5221695;28;20033;-75
2021/10/15 00:13:32;;;;;;;19.92;6.60;;;;;;;8.03;100.00;101874.72;5222117;28;20024;-75
2021/10/15 00:16:02;;;;;;;19.10;7.25;;;;;;;8.10;100.00;101869.75;5221016;28;20032;-76
2021/10/15 00:18:33;;;;;;;19.13;6.50;;;;;;;8.17;100.00;101862.94;5222118;28;20028;-74
2021/10/15 00:21:03;;;;;;;19.08;6.15;;;;;;;8.24;100.00;101861.47;5222106;28;20430;-76
2021/10/15 00:23:34;;;;;;;20.23;6.70;;;;;;;8.40;100.00;101863.75;5222063;28;20478;-74
2021/10/15 00:26:04;;;;;;;16.15;6.15;;;;;;;8.44;100.00;101860.69;5222113;28;20024;-74
2021/10/15 00:28:35;;;;;;;12.95;6.43;;;;;;;8.49;100.00;101847.78;5222224;28;20032;-77
2021/10/15 00:31:05;;;;;;;20.48;6.10;;;;;;;8.58;100.00;101851.50;5222032;28;20116;-75
2021/10/15 00:33:36;;;;;;;22.40;6.75;;;;;;;8.68;100.00;101848.88;5222121;28;20025;-77
2021/10/15 00:36:06;;;;;;;14.32;6.78;;;;;;;8.75;100.00;101847.41;5222074;28;20037;-75
2021/10/15 00:38:37;;;;;;;14.35;6.45;;;;;;;8.84;100.00;101846.63;5222669;28;20142;-78
2021/10/15 00:41:08;;;;;;;14.73;5.60;;;;;;;8.93;100.00;101840.47;5221091;28;20049;-76
2021/10/15 00:43:59;;;;;;;15.40;6.85;;;;;;;9.00;100.00;101833.63;5222582;28;20025;-76
2021/10/15 00:46:31;;;;;;;14.07;6.20;;;;;;;9.10;100.00;101838.19;5222091;28;20486;-76
2021/10/15 00:49:03;;;;;;;18.27;6.72;;;;;;;9.15;100.00;101820.75;5221661;28;20033;-76
2021/10/15 00:51:34;;;;;;;16.23;6.53;;;;;;;9.21;100.00;101825.56;5222240;28;20036;-75
2021/10/15 00:54:05;;;;;;;16.20;6.50;;;;;;;9.24;100.00;101825.31;5221989;28;20066;-76
2021/10/15 00:56:36;;;;;;;17.15;6.85;;;;;;;9.29;100.00;101814.22;5221869;28;20017;-76
2021/10/15 00:59:07;;;;;;;14.98;6.50;;;;;;;9.33;100.00;101808.41;5221813;28;20028;-76
2021/10/15 01:01:38;;;;;;;12.63;5.57;;;;;;;9.39;100.00;101809.75;5223973;28;20029;-75
2021/10/15 01:04:08;;;;;;;14.05;5.55;;;;;;;9.42;100.00;101809.44;5228400;28;20036;-76
2021/10/15 01:06:39;;;;;;;11.10;5.28;;;;;;;9.47;100.00;101801.00;5227802;28;20454;-77
2021/10/15 01:09:10;;;;;;;22.52;6.22;;;;;;;9.52;100.00;101804.97;5228696;28;20098;-76
2021/10/15 01:11:41;;;;;;;18.13;5.50;;;;;;;9.52;100.00;101804.97;5231060;28;20029;-77
2021/10/15 01:14:13;;;;;;;13.90;5.20;;;;;;;9.58;100.00;101801.75;5233650;28;20032;-77
2021/10/15 01:16:46;;;;;;;14.88;5.35;;;;;;;9.61;100.00;101803.31;5225723;28;20473;-74
2021/10/15 01:19:16;;;;;;;20.20;5.75;;;;;;;9.62;100.00;101796.97;5225487;28;20029;-74
2021/10/15 01:21:48;;;;;;;11.48;5.97;;;;;;;9.64;100.00;101796.81;5225398;28;20028;-74
2021/10/15 01:24:18;;;;;;;22.42;6.75;;;;;;;9.68;100.00;101795.56;5226196;28;20041;-74
2021/10/15 01:26:49;;;;;;;10.57;5.07;;;;;;;9.71;100.00;101789.94;5225839;28;20032;-74
2021/10/15 01:29:20;;;;;;;16.67;5.93;;;;;;;9.73;100.00;101782.59;5225647;28;20039;-72
2021/10/15 01:31:50;;;;;;;17.13;5.90;;;;;;;9.75;100.00;101776.13;5225901;28;20478;-75
2021/10/15 01:34:20;;;;;;;12.95;5.38;;;;;;;9.78;100.00;101767.81;5225667;28;20059;-73
2021/10/15 01:36:52;;;;;;;20.80;5.45;;;;;;;9.86;100.00;101764.44;5225306;28;20055;-73
2021/10/15 01:39:22;;;;;;;15.60;5.30;;;;;;;9.86;100.00;101759.94;5224981;28;20032;-74
2021/10/15 01:41:53;;;;;;;9.50;5.20;;;;;;;9.92;100.00;101755.84;5225672;28;20021;-73
2021/10/15 01:44:24;;;;;;;10.00;5.13;;;;;;;9.96;100.00;101751.91;5225138;28;20021;-73
2021/10/15 01:46:55;;;;;;;11.65;5.15;;;;;;;9.97;100.00;101744.69;5224858;28;20119;-73
2021/10/15 01:49:25;;;;;;;9.05;4.90;;;;;;;10.01;100.00;101746.13;5225086;28;20079;-72
2021/10/15 01:51:56;;;;;;;13.45;5.28;;;;;;;10.02;100.00;101742.44;5225108;28;20024;-73
2021/10/15 01:54:27;;;;;;;11.65;5.05;;;;;;;10.05;100.00;101748.38;5224154;28;20561;-74
2021/10/15 01:57:01;;;;;;;11.15;4.60;;;;;;;10.08;100.00;101741.88;5223442;28;20029;-74
2021/10/15 01:59:32;;;;;;;12.25;5.03;;;;;;;10.09;100.00;101731.03;5223485;28;20382;-74
2021/10/15 02:02:03;;;;;;;14.98;5.70;;;;;;;10.12;100.00;101740.59;5223797;28;20035;-76
2021/10/15 02:04:33;;;;;;;11.32;5.82;;;;;;;10.13;100.00;101737.78;5223734;28;20455;-73
2021/10/15 02:07:04;;;;;;;16.58;5.60;;;;;;;10.12;100.00;101736.09;5223437;28;20086;-75
2021/10/15 02:09:35;;;;;;;13.07;5.20;;;;;;;10.13;100.00;101731.56;5223150;28;20448;-74
2021/10/15 02:12:08;;;;;;;18.33;5.72;;;;;;;10.12;100.00;101727.19;5223473;28;20029;-76
2021/10/15 02:14:39;;;;;;;16.63;5.35;;;;;;;10.11;100.00;101721.00;5223067;28;20051;-75
2021/10/15 02:17:10;;;;;;;17.83;5.43;;;;;;;10.10;100.00;101726.50;5223641;28;20566;-75
2021/10/15 02:19:40;;;;;;;9.63;5.22;;;;;;;10.12;100.00;101722.69;5223034;28;20108;-73
2021/10/15 02:22:11;;;;;;;14.52;5.13;;;;;;;10.17;100.00;101716.03;5223440;28;20032;-75
2021/10/15 02:24:41;;;;;;;12.77;5.18;;;;;;;10.23;100.00;101713.63;5223077;28;20323;-74
2021/10/15 02:27:12;;;;;;;14.13;5.15;;;;;;;10.26;100.00;101717.91;5223290;28;20059;-75
2021/10/15 02:29:43;;;;;;;14.07;5.93;;;;;;;10.30;100.00;101719.31;5223172;28;20078;-75
2021/10/15 02:32:13;;;;;;;13.70;5.00;;;;;;;10.35;100.00;101711.69;5223440;28;20535;-75
2021/10/15 02:34:44;;;;;;;13.00;5.40;;;;;;;10.33;100.00;101716.34;5222696;28;20017;-75
2021/10/15 02:37:14;;;;;;;10.75;5.63;;;;;;;10.35;100.00;101709.84;5223156;28;20083;-75
2021/10/15 02:39:45;;;;;;;13.63;5.53;;;;;;;10.37;100.00;101704.34;5222663;28;20036;-75
2021/10/15 02:42:16;;;;;;;12.60;5.55;;;;;;;10.39;100.00;101699.66;5222885;28;20033;-75
2021/10/15 02:44:46;;;;;;;14.50;5.43;;;;;;;10.38;100.00;101701.50;5222924;28;20021;-74
2021/10/15 02:47:17;;;;;;;11.15;5.55;;;;;;;10.42;100.00;101701.22;5223274;28;20025;-75
2021/10/15 02:49:49;;;;;;;10.55;5.63;;;;;;;10.40;100.00;101696.00;5222783;28;20021;-74
2021/10/15 02:52:20;;;;;;;12.23;5.60;;;;;;;10.41;100.00;101703.06;5223113;28;20056;-74
2021/10/15 02:55:41;;;;;;;12.82;5.90;;;;;;;10.39;100.00;101694.28;5255691;27;20393;-74
2021/10/15 02:58:11;;;;;;;14.07;6.35;;;;;;;10.41;100.00;101694.19;5227188;28;20033;-75
2021/10/15 03:00:41;;;;;;;12.18;5.32;;;;;;;10.44;100.00;101696.53;5226124;28;20043;-74
2021/10/15 03:03:12;;;;;;;13.68;5.43;;;;;;;10.42;100.00;101688.66;5240113;28;20208;-74
2021/10/15 03:05:43;;;;;;;15.60;5.40;;;;;;;10.43;100.00;101693.03;5238374;28;20031;-74
2021/10/15 03:08:14;;;;;;;12.30;5.88;;;;;;;10.39;100.00;101683.56;5236254;28;20025;-74
2021/10/15 03:10:44;;;;;;;13.93;5.95;;;;;;;10.37;100.00;101690.94;5239611;28;20017;-73
2021/10/15 03:13:15;;;;;;;13.45;6.15;;;;;;;10.36;100.00;101684.72;5225957;28;20020;-74
2021/10/15 03:15:45;;;;;;;14.48;6.10;;;;;;;10.36;100.00;101684.72;5238446;28;20490;-73
2021/10/15 03:18:16;;;;;;;10.27;6.10;;;;;;;10.36;100.00;101691.91;5220988;28;20041;-73
2021/10/15 03:20:47;;;;;;;22.17;8.15;;;;;;;10.34;100.00;101685.84;5218551;28;20052;-73
2021/10/15 03:23:18;;;;;;;10.13;6.03;;;;;;;10.34;100.00;101686.72;5225061;28;20146;-73
2021/10/15 03:25:48;;;;;;;18.55;8.40;;;;;;;10.35;100.00;101687.56;5238756;28;20491;-73
2021/10/15 03:28:19;;;;;;;18.33;6.57;;;;;;;10.36;100.00;101678.50;5218824;28;20115;-74
2021/10/15 03:30:49;;;;;;;15.10;6.32;;;;;;;10.35;100.00;101674.97;5233162;28;20028;-73
2021/10/15 03:33:20;;;;;;;13.50;6.32;;;;;;;10.37;100.00;101664.94;5239398;28;20025;-73
2021/10/15 03:35:51;;;;;;;19.48;6.80;;;;;;;10.37;100.00;101672.16;5238987;28;20083;-73
2021/10/15 03:38:21;;;;;;;15.15;6.53;;;;;;;10.38;100.00;101673.84;5228932;28;20021;-73
2021/10/15 03:40:52;;;;;;;12.77;6.32;;;;;;;10.37;100.00;101672.16;5222246;28;20024;-73
2021/10/15 03:43:22;;;;;;;15.95;6.22;;;;;;;10.39;100.00;101667.47;5238841;28;20723;-73
2021/10/15 03:45:53;;;;;;;13.73;7.18;;;;;;;10.42;100.00;101667.19;5238783;28;20025;-73
2021/10/15 03:48:23;;;;;;;18.33;6.93;;;;;;;10.45;100.00;101666.06;5239033;28;20029;-74
2021/10/15 03:50:54;;;;;;;18.50;6.55;;;;;;;10.46;100.00;101668.59;5225384;28;20029;-73
2021/10/15 03:53:24;;;;;;;13.57;6.50;;;;;;;10.46;100.00;101673.13;5238723;28;20420;-74
2021/10/15 03:55:55;;;;;;;13.00;6.72;;;;;;;10.46;100.00;101663.25;5238074;28;20041;-74
2021/10/15 03:58:25;;;;;;;14.20;6.75;;;;;;;10.49;100.00;101660.28;5225349;28;20025;-73
2021/10/15 04:00:56;;;;;;;12.77;6.55;;;;;;;10.50;100.00;101661.97;5238438;28;20021;-74
2021/10/15 04:03:26;;;;;;;14.90;7.00;;;;;;;10.53;100.00;101658.13;5220853;28;20141;-74
2021/10/15 04:05:58;;;;;;;14.38;6.53;;;;;;;10.51;100.00;101658.28;5219306;28;20029;-73
2021/10/15 04:08:28;;;;;;;18.50;6.90;;;;;;;10.53;100.00;101656.28;5224430;28;20087;-74
2021/10/15 04:10:59;;;;;;;15.05;7.70;;;;;;;10.51;100.00;101652.91;5213101;28;20125;-74
2021/10/15 04:13:29;;;;;;;15.15;6.60;;;;;;;10.52;100.00;101654.59;5223039;28;20013;-74
2021/10/15 04:16:01;;;;;;;13.25;6.70;;;;;;;10.56;100.00;101647.13;5212057;28;20087;-73
2021/10/15 04:18:31;;;;;;;16.33;7.78;;;;;;;10.55;100.00;101645.44;5204309;28;20029;-73
2021/10/15 04:21:02;;;;;;;17.83;8.25;;;;;;;10.55;100.00;101642.75;5217500;28;20551;-74
2021/10/15 04:23:33;;;;;;;19.17;7.65;;;;;;;10.60;100.00;101641.31;5224709;28;20415;-75
2021/10/15 04:26:03;;;;;;;17.50;6.40;;;;;;;10.62;100.00;101630.41;5224841;28;20497;-74
2021/10/15 04:28:34;;;;;;;15.23;6.88;;;;;;;10.62;100.00;101631.25;5224782;28;20098;-74
2021/10/15 04:31:05;;;;;;;14.90;7.20;;;;;;;10.62;100.00;101627.72;5210958;28;20032;-74
2021/10/15 04:33:35;;;;;;;15.73;8.20;;;;;;;10.61;100.00;101628.72;5213493;28;20025;-73
2021/10/15 04:36:06;;;;;;;12.82;6.53;;;;;;;10.63;100.00;101627.56;5221858;28;20537;-72
2021/10/15 04:38:37;;;;;;;15.75;7.43;;;;;;;10.61;100.00;101626.88;5212133;28;20021;-75
2021/10/15 04:41:07;;;;;;;15.45;7.25;;;;;;;10.61;100.00;101618.84;5221961;28;20071;-74
2021/10/15 04:43:38;;;;;;;19.30;8.15;;;;;;;10.65;100.00;101618.56;5224413;28;20020;-73
2021/10/15 04:46:08;;;;;;;19.75;7.35;;;;;;;10.68;100.00;101610.19;5216368;28;20040;-73
2021/10/15 04:48:39;;;;;;;16.27;7.65;;;;;;;10.65;100.00;101618.56;5218099;28;20441;-73
2021/10/15 04:51:09;;;;;;;13.55;6.88;;;;;;;10.67;100.00;101605.81;5215555;28;20029;-75
2021/10/15 04:53:40;;;;;;;15.55;7.72;;;;;;;10.68;100.00;101611.03;5219366;28;20021;-75
2021/10/15 04:56:10;;;;;;;16.17;8.50;;;;;;;10.68;100.00;101607.50;5223747;28;20055;-74
2021/10/15 04:58:41;;;;;;;12.70;7.82;;;;;;;10.66;100.00;101610.34;5206484;28;20094;-74
2021/10/15 05:01:11;;;;;;;24.40;11.20;;;;;;;10.69;100.00;101610.03;5214536;28;20079;-75
2021/10/15 05:03:42;;;;;;;18.08;7.68;;;;;;;10.67;100.00;101613.88;5203836;28;20017;-75
2021/10/15 05:06:12;;;;;;;15.48;8.13;;;;;;;10.68;100.00;101610.19;5215880;28;20028;-74
2021/10/15 05:08:50;;;;;;;16.45;8.35;;;;;;;10.66;100.00;101604.97;5213456;28;20025;-73
2021/10/15 05:11:20;;;;;;;21.98;8.55;;;;;;;10.69;100.00;101601.97;5216749;28;20029;-73
2021/10/15 05:13:51;;;;;;;14.10;7.97;;;;;;;10.70;100.00;101608.22;5201912;28;20033;-73
2021/10/15 05:16:22;;;;;;;17.65;8.73;;;;;;;10.72;100.00;101611.59;5203112;28;20040;-75
2021/10/15 05:18:52;;;;;;;24.95;9.80;;;;;;;10.74;100.00;101597.00;5212087;28;20029;-76
2021/10/15 05:21:23;;;;;;;13.95;7.45;;;;;;;10.75;100.00;101606.78;5209734;28;20021;-75
2021/10/15 05:23:53;;;;;;;15.95;7.80;;;;;;;10.76;100.00;101611.16;5212302;28;20031;-75
2021/10/15 05:26:24;;;;;;;13.82;6.88;;;;;;;10.76;100.00;101611.16;5220472;28;20020;-77
2021/10/15 05:28:54;;;;;;;27.70;12.23;;;;;;;10.76;100.00;101611.16;5221711;28;20016;-76
2021/10/15 05:31:25;;;;;;;18.55;7.70;;;;;;;10.77;100.00;101610.16;5217548;28;20120;-77
2021/10/15 05:33:55;;;;;;;19.50;8.23;;;;;;;10.79;100.00;101602.81;5215210;28;20044;-77
2021/10/15 05:36:26;;;;;;;19.00;7.63;;;;;;;10.83;100.00;101611.38;5215027;28;20040;-77
2021/10/15 05:38:56;;;;;;;20.85;8.95;;;;;;;10.90;100.00;101604.44;5216187;28;20452;-77
2021/10/15 05:41:27;;;;;;;18.10;7.78;;;;;;;10.94;100.00;101604.97;5215082;28;20056;-76
2021/10/15 05:43:57;;;;;;;20.48;8.10;;;;;;;10.94;100.00;101608.50;5202508;28;20037;-75
2021/10/15 05:46:28;;;;;;;21.95;8.93;;;;;;;10.97;100.00;101612.72;5211378;28;20074;-75
2021/10/15 05:48:58;;;;;;;19.38;8.15;;;;;;;10.96;100.00;101616.41;5205839;28;20032;-75
2021/10/15 05:51:30;;;;;;;16.10;7.65;;;;;;;10.96;100.00;101614.56;5202501;28;20032;-76
2021/10/15 05:54:02;;;;;;;18.83;8.27;;;;;;;11.02;100.00;101622.03;5220221;28;20025;-76
2021/10/15 05:56:42;;;;;;;19.55;7.30;;;;;;;11.09;100.00;101615.06;5210538;28;20033;-73
2021/10/15 05:59:13;;;;;;;14.80;7.70;;;;;;;11.08;100.00;101615.19;5201907;28;20487;-74
2021/10/15 06:01:43;;;;;;;26.35;13.30;;;;;;;11.10;100.00;101622.13;5215950;28;20075;-74
2021/10/15 06:15:37;;;;;;;20.48;9.18;;;;;;;11.13;100.00;101620.97;5212540;28;20022;-74
2021/10/15 06:18:18;;;;;;;18.50;7.40;;;;;;;11.14;100.00;101630.69;5201655;28;20040;-74
2021/10/15 06:20:49;;;;;;;22.30;9.10;;;;;;;11.13;100.00;101629.88;5201402;28;20369;-73
2021/10/15 06:23:20;;;;;;;28.63;8.65;;;;;;;11.17;100.00;101633.09;5208243;28;20410;-74
2021/10/15 06:25:51;;;;;;;18.17;8.30;;;;;;;11.16;100.00;101636.78;5208610;28;20033;-74
2021/10/15 06:28:21;;;;;;;19.45;8.20;;;;;;;11.19;100.00;101638.31;5221870;28;20116;-74
2021/10/15 06:30:51;;;;;;;21.67;9.75;;;;;;;11.17;100.00;101646.53;5206938;28;20376;-74
2021/10/15 06:33:22;;;;;;;18.17;7.82;;;;;;;11.18;100.00;101639.31;5201349;28;20029;-74
2021/10/15 06:35:53;;;;;;;22.77;8.30;;;;;;;11.15;100.00;101638.63;5217322;28;20028;-74
2021/10/15 06:38:23;;;;;;;18.42;8.48;;;;;;;11.16;100.00;101636.78;5212028;28;20526;-74
2021/10/15 06:40:53;;;;;;;21.92;8.77;;;;;;;11.15;100.00;101640.47;5216820;28;20063;-75
2021/10/15 06:43:24;;;;;;;15.05;7.75;;;;;;;11.15;100.00;101641.31;5204982;28;20025;-74
2021/10/15 06:45:55;;;;;;;23.00;8.05;;;;;;;11.18;100.00;101647.38;5201641;28;20025;-74
2021/10/15 06:48:25;;;;;;;18.33;8.30;;;;;;;11.18;100.00;101640.16;5201285;28;20079;-74
2021/10/15 06:50:56;;;;;;;21.33;8.60;;;;;;;11.20;100.00;101653.47;5217039;28;20681;-74
2021/10/15 06:53:26;;;;;;;15.80;8.45;;;;;;;11.22;100.00;101643.41;5218942;28;20021;-75
2021/10/15 06:55:57;;;;;;;22.17;9.65;;;;;;;11.25;100.00;101653.84;5209899;28;20036;-74
2021/10/15 06:58:28;;;;;;;21.13;9.30;;;;;;;11.23;100.00;101653.13;5200615;28;20025;-74
2021/10/15 07:00:59;;;;;;;21.15;8.93;;;;;;;11.22;100.00;101656.81;5218658;28;20104;-74
2021/10/15 07:03:29;;;;;;;22.35;9.73;;;;;;;11.22;100.00;101646.06;5213628;28;20132;-74
2021/10/15 07:06:00;;;;;;;19.50;9.32;;;;;;;11.26;100.00;101653.69;5209653;28;20032;-74
2021/10/15 07:08:31;;;;;;;19.88;9.40;;;;;;;11.27;100.00;101651.84;5219175;28;20067;-75
2021/10/15 07:11:01;;;;;;;27.90;14.60;;;;;;;11.28;100.00;101661.59;5219011;28;20448;-74
2021/10/15 07:13:32;;;;;;;22.13;11.50;;;;;;;11.28;100.00;101658.91;5212647;28;20087;-74
2021/10/15 07:16:03;;;;;;;31.05;13.30;;;;;;;11.30;100.00;101660.47;5210550;28;20537;-74
2021/10/15 07:18:33;;;;;;;21.90;9.70;;;;;;;11.31;100.00;101658.59;5212157;28;20021;-74
2021/10/15 07:21:08;;;;;;;22.52;9.77;;;;;;;11.31;100.00;101664.81;5213763;28;20029;-74
2021/10/15 07:23:38;;;;;;;17.75;8.52;;;;;;;11.32;100.00;101671.88;5219463;28;20021;-75
2021/10/15 07:26:10;;;;;;;25.98;9.13;;;;;;;11.41;100.00;101676.34;5219105;28;20098;-74
2021/10/15 07:28:41;;;;;;;21.83;9.40;;;;;;;11.42;100.00;101677.19;5219269;28;20025;-75
2021/10/15 07:31:11;;;;;;;26.85;10.27;;;;;;;11.46;100.00;101667.84;5218868;28;20386;-74
2021/10/15 07:33:42;;;;;;;19.33;9.40;;;;;;;11.52;100.00;101675.28;5219119;28;20021;-74
2021/10/15 07:36:13;;;;;;;18.02;8.93;;;;;;;11.57;100.00;101658.72;5218481;28;20291;-74
2021/10/15 07:38:43;;;;;;;21.63;9.18;;;;;;;11.55;100.00;101656.19;5218681;28;20049;-74
2021/10/15 07:41:14;;;;;;;16.27;9.10;;;;;;;11.51;100.00;101657.47;5219341;28;20017;-74
2021/10/15 07:43:47;;;;;;;19.92;9.35;;;;;;;11.49;100.00;101667.50;5209011;28;20482;-74
2021/10/15 07:46:18;;;;;;;20.95;9.27;;;;;;;11.60;100.00;101674.53;5222405;28;20383;-72
2021/10/15 07:48:49;;;;;;;17.60;8.30;;;;;;;11.82;100.00;101684.00;5222258;28;20021;-72
2021/10/15 07:51:19;;;;;;;19.00;9.10;;;;;;;12.07;100.00;101679.69;5222292;28;20025;-72
2021/10/15 07:53:50;;;;;;;17.85;9.93;;;;;;;12.13;100.00;101682.59;5220819;28;20504;-72
2021/10/15 07:56:20;;;;;;;18.35;8.13;;;;;;;12.18;100.00;101691.03;5222496;28;20033;-72
2021/10/15 07:58:50;;;;;;;23.52;8.52;;;;;;;12.15;100.00;101685.16;5221037;28;20489;-72
2021/10/15 08:01:21;;;;;;;26.90;8.93;;;;;;;12.10;100.00;101693.69;5221745;28;20027;-72
2021/10/15 08:03:52;;;;;;;20.88;8.70;;;;;;;12.02;100.00;101690.91;5220785;28;20023;-75
2021/10/15 08:06:22;;;;;;;21.20;9.50;;;;;;;11.98;100.00;101691.38;5208870;28;20394;-72
2021/10/15 08:08:53;;;;;;;16.77;8.57;;;;;;;11.94;100.00;101682.75;5222723;28;20052;-75
2021/10/15 08:11:23;;;;;;;18.98;9.07;;;;;;;11.96;100.00;101686.16;5222350;28;20033;-72
2021/10/15 08:13:53;;;;;;;23.20;9.07;;;;;;;11.97;100.00;101687.84;5220673;28;20021;-72
2021/10/15 08:16:24;;;;;;;26.58;9.55;;;;;;;11.96;100.00;101696.91;5221490;28;20112;-73
2021/10/15 08:18:54;;;;;;;19.10;9.07;;;;;;;12.02;100.00;101692.75;5221502;28;20478;-73
2021/10/15 08:21:25;;;;;;;25.42;9.63;;;;;;;12.06;100.00;101692.28;5221972;28;20029;-73
2021/10/15 08:23:55;;;;;;;26.63;9.35;;;;;;;12.07;100.00;101696.66;5221637;28;20059;-73
2021/10/15 08:26:26;;;;;;;23.17;8.68;;;;;;;12.09;100.00;101691.97;5221451;28;20023;-73
2021/10/15 08:29:00;;;;;;;20.55;8.95;;;;;;;12.11;100.00;101699.91;5220948;28;20025;-73
2021/10/15 08:31:30;;;;;;;21.35;9.88;;;;;;;12.07;100.00;101701.19;5220565;28;20021;-73
2021/10/15 08:34:07;;;;;;;23.55;9.57;;;;;;;12.06;100.00;101703.06;5221267;28;20501;-74
2021/10/15 08:36:38;;;;;;;24.77;10.15;;;;;;;12.09;100.00;101707.25;5212563;28;20147;-73
2021/10/15 08:39:09;;;;;;;73.85;30.73;;;;;;;12.14;100.00;101708.47;5216566;28;20063;-73
2021/10/15 08:41:39;;;;;;;32.53;17.08;;;;;;;12.20;100.00;101715.09;5221476;28;20065;-73
2021/10/15 08:44:10;;;;;;;27.58;11.32;;;;;;;12.21;100.00;101716.78;5206910;28;20238;-74
2021/10/15 08:46:40;;;;;;;26.85;10.98;;;;;;;12.12;100.00;101723.94;5221619;28;20059;-74
2021/10/15 08:49:11;;;;;;;20.85;9.93;;;;;;;12.04;100.00;101720.31;5208402;28;20049;-74
2021/10/15 08:51:42;;;;;;;22.08;9.88;;;;;;;12.00;100.00;101724.31;5221639;28;20508;-74
2021/10/15 08:54:12;;;;;;;27.70;11.80;;;;;;;11.95;100.00;101723.94;5220317;28;20104;-74
2021/10/15 08:56:43;;;;;;;31.48;11.82;;;;;;;11.99;100.00;101717.25;5221463;28;20064;-74
2021/10/15 08:59:19;;;;;;;23.13;11.07;;;;;;;12.27;100.00;101726.09;5221297;28;20028;-75
2021/10/15 09:01:50;;;;;;;26.73;10.80;;;;;;;12.40;100.00;101722.00;5221271;28;20385;-74
2021/10/15 09:04:20;;;;;;;32.33;10.85;;;;;;;12.54;100.00;101720.56;5220654;28;20025;-74
2021/10/15 09:06:51;;;;;;;30.02;14.95;;;;;;;12.61;100.00;101723.47;5221025;28;20029;-74
2021/10/15 09:09:28;;;;;;;39.30;21.25;;;;;;;12.63;100.00;101730.38;5220793;28;20017;-74
2021/10/15 09:12:10;;;;;;;25.80;13.35;;;;;;;12.55;100.00;101730.34;5207941;28;20213;-74
2021/10/15 09:14:41;;;;;;;28.20;13.63;;;;;;;12.47;100.00;101737.50;5207014;28;20056;-74
2021/10/15 09:17:16;;;;;;;19.55;10.75;;;;;;;12.41;100.00;101750.59;5220073;28;20025;-74
2021/10/15 09:19:48;;;;;;;;;;;;;;;12.32;100.00;101759.59;5221035;28;20033;-74
2021/10/15 09:22:29;;;;;;;26.70;12.75;;;;;;;12.24;100.00;101761.34;5220979;28;19920;-74
2021/10/15 09:25:05;;;;;;;31.02;13.48;;;;;;;12.11;100.00;101767.13;5220353;28;20028;-74
2021/10/15 09:27:38;;;;;;;23.90;12.98;;;;;;;12.02;100.00;101776.97;5221483;28;20043;-73
2021/10/15 09:30:11;;;;;;;25.42;13.10;;;;;;;12.13;100.00;101783.97;5212887;28;20215;-73
2021/10/15 09:32:45;;;;;;;30.95;15.02;;;;;;;12.11;100.00;101794.88;5216563;28;20039;-74
2021/10/15 09:35:19;;;;;;;34.72;14.95;;;;;;;12.04;100.00;101801.84;5220895;28;20088;-73
2021/10/15 09:37:54;;;;;;;30.10;13.60;;;;;;;11.97;100.00;101798.09;5221242;28;20068;-73
2021/10/15 09:40:26;;;;;;;28.58;14.60;;;;;;;12.03;100.00;101802.84;5220529;28;20025;-73
2021/10/15 09:42:59;;;;;;;26.40;14.02;;;;;;;12.15;100.00;101798.97;5213233;28;20029;-74
2021/10/15 09:45:36;;;;;;;23.48;13.80;;;;;;;12.36;100.00;101808.56;5213744;28;20021;-73
2021/10/15 09:48:25;;;;;;;21.00;11.57;;;;;;;12.41;100.00;101814.34;5220430;28;20029;-73
2021/10/15 09:51:11;;;;;;;16.75;10.13;;;;;;;12.27;100.00;101817.56;5220358;28;20490;-74
2021/10/15 09:54:01;;;;;;;;;;;;;;;12.14;100.00;101823.31;5220300;28;20051;-74
2021/10/15 09:56:49;;;;;;;12.18;7.22;;;;;;;12.03;100.00;101827.06;5220094;28;20023;-74
2021/10/15 09:59:20;;;;;;;11.20;6.13;;;;;;;12.04;100.00;101828.75;5207357;28;20390;-74
2021/10/15 10:01:51;;;;;;;11.82;5.15;;;;;;;12.07;100.00;101836.53;5220247;28;20025;-74
2021/10/15 10:04:22;;;;;;;10.18;4.25;;;;;;;12.06;100.00;101839.38;5219936;28;20047;-74
2021/10/15 10:06:52;;;;;;;8.43;4.00;;;;;;;12.03;100.00;101842.34;5218285;28;20071;-74
2021/10/15 10:09:23;;;;;;;10.63;4.82;;;;;;;12.01;100.00;101842.53;5219671;28;20056;-74
2021/10/15 10:11:54;;;;;;;15.52;5.38;;;;;;;12.00;100.00;101851.59;5219326;28;20031;-74
2021/10/15 10:14:24;;;;;;;10.90;5.28;;;;;;;12.02;100.00;101851.44;5220516;28;20021;-74
2021/10/15 10:16:57;;;;;;;7.65;4.03;;;;;;;12.09;100.00;101865.94;5220051;28;20029;-74
2021/10/15 10:19:29;;;;;;;9.15;3.55;;;;;;;12.09;100.00;101866.78;5219575;28;20155;-74
2021/10/15 10:22:00;;;;;;;8.77;3.25;;;;;;;12.09;100.00;101869.47;5220650;28;20024;-74
2021/10/15 10:24:34;;;;;;;7.72;2.60;;;;;;;12.07;100.00;101868.81;5220754;28;20028;-74
2021/10/15 10:27:05;;;;;;;6.80;2.40;;;;;;;12.12;100.00;101868.34;5220149;28;20050;-74
2021/10/15 10:29:44;;;;;;;11.10;2.20;;;;;;;12.17;100.00;101864.19;5217611;28;20082;-74
2021/10/15 10:32:17;;;;;;;5.63;1.85;;;;;;;12.26;100.00;101875.06;5220140;28;20051;-74
2021/10/15 10:34:47;;;;;;;5.93;2.35;;;;;;;12.36;100.00;101871.31;5213148;28;20390;-74
2021/10/15 10:37:19;;;;;;;6.15;1.58;;;;;;;12.36;100.00;101859.69;5212904;28;20021;-74
2021/10/15 10:40:07;;;;;;;6.70;1.42;;;;;;;12.31;100.00;101864.69;5218549;28;20024;-74
2021/10/15 10:43:01;;;;;;;4.13;1.60;;;;;;;12.47;100.00;101864.84;5206713;28;20036;-74
2021/10/15 10:45:32;;;;;;;7.43;2.28;;;;;;;12.42;100.00;101873.38;5218319;28;20017;-74
2021/10/15 10:48:05;;;;;;;7.97;1.33;;;;;;;12.42;100.00;101875.22;5207505;28;20390;-74
2021/10/15 10:50:35;;;;;;;3.05;1.27;;;;;;;12.52;100.00;101889.44;5205696;28;20052;-74
2021/10/15 10:53:08;;;;;;;8.13;1.55;;;;;;;12.59;100.00;101887.81;5208842;28;20052;-74
2021/10/15 10:55:46;;;;;;;6.72;1.92;;;;;;;12.61;100.00;101893.91;5212763;28;20033;-74
2021/10/15 10:58:36;;;;;;;9.70;1.70;;;;;;;12.59;100.00;101895.91;5201867;28;20025;-73
2021/10/15 11:01:26;;;;;;;4.03;1.52;;;;;;;12.60;100.00;101894.91;5203977;28;20044;-74
2021/10/15 11:03:57;;;;;;;4.65;1.42;;;;;;;12.63;100.00;101893.75;5213416;28;20104;-73
2021/10/15 11:06:54;;;;;;;7.55;1.83;;;;;;;12.81;100.00;101894.59;5275499;23;20041;-76
2021/10/15 11:09:30;;;;;;;7.47;1.52;;;;;;;12.91;100.00;101897.19;5202963;28;20498;-76
2021/10/15 11:12:01;;;;;;;8.38;1.35;;;;;;;13.00;100.00;101898.09;5198383;28;20061;-76
2021/10/15 11:14:55;;;;;;;7.78;1.15;;;;;;;13.07;100.00;101912.63;5197018;28;20065;-76
2021/10/15 11:17:48;;;;;;;6.40;1.55;;;;;;;13.01;100.00;101906.03;5201921;28;20029;-76
2021/10/15 11:20:21;;;;;;;10.05;1.45;;;;;;;13.05;100.00;101910.13;5192144;28;20108;-76
2021/10/15 11:22:58;;;;;;;4.07;0.90;;;;;;;13.11;100.00;101903.25;5174093;28;20029;-76
2021/10/15 11:25:32;;;;;;;8.30;1.65;;;;;;;13.15;100.00;101894.69;5202275;28;20027;-76
2021/10/15 11:28:08;;;;;;;7.78;1.23;;;;;;;13.22;100.00;101905.72;5201751;28;20029;-76
2021/10/15 11:30:44;;;;;;;;;;;;;;;13.41;100.00;101896.59;5202179;28;20026;-76
2021/10/15 11:33:16;;;;;;;5.88;1.23;;;;;;;13.62;100.00;101906.97;5200997;28;19908;-76
2021/10/15 11:35:50;;;;;;;8.80;1.73;;;;;;;13.69;100.00;101911.53;5182903;28;20112;-75
2021/10/15 11:38:25;;;;;;;7.40;1.25;;;;;;;13.85;100.00;101909.94;5201864;28;20245;-76
2021/10/15 11:40:56;;;;;;;2.50;0.75;;;;;;;14.25;100.00;101901.13;5199647;28;20036;-76
2021/10/15 11:43:29;;;;;;;6.32;1.23;;;;;;;14.55;100.00;101897.00;5201787;28;20090;-76
2021/10/15 11:46:03;;;;;;;3.28;1.58;;;;;;;14.76;100.00;101897.38;5200462;28;20116;-76